Indaiatuba, Brazil
Current Conditions -  °F | °C
As of 7:00 PM on Sunday 23 Nov 2014 (Local Time) from SBKP Reporting Station
Rain Showers Rain Showers  
Wind Chill: 79°   Ceiling: 10000
Heat Index: 81°   Visibility: 6mi
Dew Point: 64°   Wind: 16mph
Humidity: 61%   Direction: 190°S
Pressure: NA   Gusts: NA
Location:  23.09°S, 47.21°W
Report Text: SBKP 232100Z 19014KT 9999 VCSH SCT030 FEW050TCU BKN100 26/18 Q1014
Loading
Personal Weather Stations






























Interactive Weather Map New forecast layout! Learn more

10-Day Weather Forecast

Advertisements
Track Severe Weather on mobile